Time;durP1;ratioP1;P1;durP2;ratioP2;P2;SDS_P1;SDS_P2;PMS_P1;PMS_P2;Temp;Humidity;BMP_temperature;BMP_pressure;BME280_temperature;BME280_humidity;BME280_pressure;Samples;Min_cycle;Max_cycle;Signal;HPM_P1;HPM_P2
2023/09/02 00:00:10;;;;;;;2.92;1.70;;;;;;;;;;6276266;22;20075;-92
2023/09/02 00:02:36;;;;;;;2.97;1.30;;;;;;;;;;6275660;22;20071;-92
2023/09/02 00:05:02;;;;;;;2.15;1.50;;;;;;;;;;6274988;22;20008;-93
2023/09/02 00:07:28;;;;;;;2.47;1.65;;;;;;;;;;6275163;22;20011;-93
2023/09/02 00:09:54;;;;;;;3.97;1.50;;;;;;;;;;6275440;22;20083;-94
2023/09/02 00:12:20;;;;;;;4.32;1.90;;;;;;;;;;6274405;22;20039;-92
2023/09/02 00:14:46;;;;;;;4.22;1.60;;;;;;;;;;6274699;22;19996;-93
2023/09/02 00:17:12;;;;;;;5.20;1.55;;;;;;;;;;6274477;22;20007;-91
2023/09/02 00:19:38;;;;;;;3.33;1.63;;;;;;;;;;6274733;22;20062;-92
2023/09/02 00:22:04;;;;;;;5.90;1.80;;;;;;;;;;6274501;22;20035;-92
2023/09/02 00:24:30;;;;;;;3.58;1.67;;;;;;;;;;6274584;22;20015;-92
2023/09/02 00:26:56;;;;;;;3.08;1.65;;;;;;;;;;6274229;22;20079;-93
2023/09/02 00:29:22;;;;;;;2.80;1.80;;;;;;;;;;6274222;22;20004;-93
2023/09/02 00:31:48;;;;;;;5.32;1.38;;;;;;;;;;6273443;22;20012;-93
2023/09/02 00:34:15;;;;;;;5.72;1.70;;;;;;;;;;6274067;22;20017;-92
2023/09/02 00:36:41;;;;;;;5.63;1.70;;;;;;;;;;6274266;22;20020;-93
2023/09/02 00:39:07;;;;;;;4.30;1.67;;;;;;;;;;6274385;22;20425;-92
2023/09/02 00:41:36;;;;;;;2.63;1.52;;;;;;;;;;6273932;22;20190;-93
2023/09/02 00:44:02;;;;;;;7.05;1.77;;;;;;;;;;6274419;22;20110;-92
2023/09/02 00:46:28;;;;;;;3.15;1.88;;;;;;;;;;6274462;22;20041;-93
2023/09/02 00:48:54;;;;;;;2.65;1.73;;;;;;;;;;6273715;22;20007;-93
2023/09/02 00:51:20;;;;;;;6.68;1.67;;;;;;;;;;6273820;22;20003;-91
2023/09/02 00:53:46;;;;;;;3.78;1.80;;;;;;;;;;6274133;22;20050;-92
2023/09/02 00:56:14;;;;;;;3.50;1.55;;;;;;;;;;6274231;22;20012;-93
2023/09/02 00:58:40;;;;;;;7.03;1.73;;;;;;;;;;6273991;22;20007;-94
2023/09/02 01:01:07;;;;;;;2.35;1.60;;;;;;;;;;6273930;22;20022;-93
2023/09/02 01:03:35;;;;;;;3.92;1.90;;;;;;;;;;6273232;22;20000;-92
2023/09/02 01:06:02;;;;;;;3.72;1.50;;;;;;;;;;6274386;22;20421;-93
2023/09/02 01:08:29;;;;;;;4.93;1.70;;;;;;;;;;6273824;22;20007;-92
2023/09/02 01:10:55;;;;;;;1.60;1.42;;;;;;;;;;6273391;22;20455;-92
2023/09/02 01:13:22;;;;;;;6.28;1.75;;;;;;;;;;6273954;22;20031;-93
2023/09/02 01:15:48;;;;;;;1.90;1.40;;;;;;;;;;6273809;22;20000;-93
2023/09/02 01:18:14;;;;;;;2.47;1.55;;;;;;;;;;6273871;22;20007;-92
2023/09/02 01:20:59;;;;;;;1.85;1.42;;;;;;;;;;6275420;22;20472;-94
2023/09/02 01:23:31;;;;;;;4.53;1.50;;;;;;;;;;6275115;22;20004;-92
2023/09/02 01:26:18;;;;;;;3.03;1.70;;;;;;;;;;6274337;22;20019;-93
2023/09/02 01:28:46;;;;;;;2.03;1.63;;;;;;;;;;6273885;22;20127;-92
2023/09/02 01:31:14;;;;;;;3.42;1.50;;;;;;;;;;6273551;22;20004;-93
2023/09/02 01:33:40;;;;;;;3.65;1.60;;;;;;;;;;6274955;22;20000;-92
2023/09/02 01:36:07;;;;;;;3.58;1.70;;;;;;;;;;6273964;22;20055;-92
2023/09/02 01:38:33;;;;;;;2.60;1.52;;;;;;;;;;6273430;22;20008;-92
2023/09/02 01:41:00;;;;;;;5.45;1.90;;;;;;;;;;6272711;22;20011;-92
2023/09/02 01:43:29;;;;;;;5.28;1.85;;;;;;;;;;6273463;22;20041;-91
2023/09/02 01:45:56;;;;;;;2.38;1.52;;;;;;;;;;6275944;22;20010;-93
2023/09/02 01:48:23;;;;;;;2.45;2.05;;;;;;;;;;6273676;22;20353;-92
2023/09/02 01:50:52;;;;;;;10.40;1.85;;;;;;;;;;6274886;22;20095;-92
2023/09/02 01:53:18;;;;;;;4.65;1.90;;;;;;;;;;6272840;22;20039;-92
2023/09/02 01:55:44;;;;;;;2.92;1.65;;;;;;;;;;6273943;22;20007;-92
2023/09/02 01:58:11;;;;;;;2.78;1.60;;;;;;;;;;6276476;22;20012;-92
2023/09/02 02:00:40;;;;;;;2.30;1.50;;;;;;;;;;6276480;22;20422;-93
2023/09/02 02:03:15;;;;;;;3.83;1.88;;;;;;;;;;6273682;22;20011;-92
2023/09/02 02:05:44;;;;;;;3.17;1.50;;;;;;;;;;6273971;22;20028;-92
2023/09/02 02:08:13;;;;;;;4.35;2.25;;;;;;;;;;6273933;22;20686;-93
2023/09/02 02:10:42;;;;;;;7.95;1.95;;;;;;;;;;6275231;22;20011;-93
2023/09/02 02:13:08;;;;;;;4.38;1.70;;;;;;;;;;6275615;22;20010;-93
2023/09/02 02:15:34;;;;;;;3.10;1.90;;;;;;;;;;6272709;22;20004;-93
2023/09/02 02:18:00;;;;;;;2.08;1.40;;;;;;;;;;6275761;22;20050;-91
2023/09/02 02:20:33;;;;;;;4.10;1.67;;;;;;;;;;6275547;22;20417;-93
2023/09/02 02:22:59;;;;;;;3.55;2.00;;;;;;;;;;6275071;22;20441;-92
2023/09/02 02:25:25;;;;;;;5.90;1.85;;;;;;;;;;6275311;22;19999;-93
2023/09/02 02:27:50;;;;;;;3.35;1.63;;;;;;;;;;6275917;22;20395;-93
2023/09/02 02:30:16;;;;;;;3.30;1.60;;;;;;;;;;6275358;22;20049;-92
2023/09/02 02:32:42;;;;;;;3.22;1.98;;;;;;;;;;6275210;22;20011;-93
2023/09/02 02:50:26;;;;;;;2.85;1.60;;;;;;;;;;6274437;22;20456;-93
2023/09/02 02:52:52;;;;;;;6.57;2.20;;;;;;;;;;6275153;22;19999;-91
2023/09/02 02:55:18;;;;;;;3.25;1.40;;;;;;;;;;6275577;22;20454;-93
2023/09/02 02:57:45;;;;;;;2.70;1.35;;;;;;;;;;6275186;22;20043;-92
2023/09/02 03:00:11;;;;;;;3.53;1.75;;;;;;;;;;6275029;22;20007;-92
2023/09/02 03:02:37;;;;;;;3.45;1.80;;;;;;;;;;6275317;22;20437;-93
2023/09/02 03:05:03;;;;;;;6.72;1.92;;;;;;;;;;6275142;22;20004;-93
2023/09/02 03:07:29;;;;;;;4.35;1.63;;;;;;;;;;6274986;22;19996;-92
2023/09/02 03:09:56;;;;;;;6.28;1.48;;;;;;;;;;6275538;22;20029;-93
2023/09/02 03:12:21;;;;;;;3.58;1.42;;;;;;;;;;6275193;22;20431;-93
2023/09/02 03:14:48;;;;;;;1.58;1.27;;;;;;;;;;6274159;22;20087;-92
2023/09/02 03:17:14;;;;;;;2.85;1.50;;;;;;;;;;6275380;22;20016;-92
2023/09/02 03:19:49;;;;;;;2.97;1.55;;;;;;;;;;6275376;22;20006;-92
2023/09/02 03:22:15;;;;;;;7.68;1.50;;;;;;;;;;6276380;22;20032;-92
2023/09/02 03:24:41;;;;;;;3.10;1.80;;;;;;;;;;6275087;22;20003;-92
2023/09/02 03:27:07;;;;;;;2.75;1.90;;;;;;;;;;6274820;22;20007;-93
2023/09/02 03:29:34;;;;;;;7.25;1.70;;;;;;;;;;6276408;22;20003;-91
2023/09/02 03:32:00;;;;;;;5.13;2.03;;;;;;;;;;6274802;22;20007;-92
2023/09/02 03:34:26;;;;;;;5.43;2.03;;;;;;;;;;6275556;22;20043;-92
2023/09/02 03:36:52;;;;;;;5.88;2.03;;;;;;;;;;6274936;22;20015;-92
2023/09/02 03:39:18;;;;;;;2.28;1.60;;;;;;;;;;6275977;22;20020;-91
2023/09/02 03:41:47;;;;;;;8.70;1.92;;;;;;;;;;6274937;22;20007;-91
2023/09/02 03:44:13;;;;;;;4.05;1.77;;;;;;;;;;6274797;22;20015;-91
2023/09/02 03:46:38;;;;;;;2.88;2.03;;;;;;;;;;6275135;22;20023;-90
2023/09/02 03:49:08;;;;;;;5.25;2.17;;;;;;;;;;6274801;22;20011;-92
2023/09/02 03:51:34;;;;;;;7.30;1.95;;;;;;;;;;6276171;22;20088;-91
2023/09/02 03:54:00;;;;;;;4.18;2.10;;;;;;;;;;6275012;22;20003;-92
2023/09/02 03:56:26;;;;;;;2.38;1.90;;;;;;;;;;6274649;22;20030;-90
2023/09/02 03:58:53;;;;;;;3.15;1.65;;;;;;;;;;6274721;22;20008;-91
2023/09/02 04:01:19;;;;;;;2.15;1.50;;;;;;;;;;6276374;22;20003;-91
2023/09/02 04:03:45;;;;;;;5.95;2.03;;;;;;;;;;6273727;22;20090;-91
2023/09/02 04:06:11;;;;;;;2.92;2.08;;;;;;;;;;6276161;22;20000;-91
2023/09/02 04:08:37;;;;;;;4.15;2.05;;;;;;;;;;6276503;22;20396;-91
2023/09/02 04:11:03;;;;;;;9.07;1.95;;;;;;;;;;6274963;22;20004;-91
2023/09/02 04:13:29;;;;;;;3.15;1.85;;;;;;;;;;6274584;22;20023;-91
2023/09/02 04:15:56;;;;;;;3.70;2.00;;;;;;;;;;6274443;22;20007;-91
2023/09/02 04:18:22;;;;;;;2.80;1.90;;;;;;;;;;6274645;22;20019;-92
2023/09/02 04:20:48;;;;;;;3.72;2.25;;;;;;;;;;6274789;22;20010;-92
2023/09/02 04:23:14;;;;;;;3.47;2.03;;;;;;;;;;6274245;22;20007;-92
2023/09/02 04:25:47;;;;;;;2.40;1.50;;;;;;;;;;6275735;22;19996;-92
2023/09/02 04:28:14;;;;;;;3.25;2.30;;;;;;;;;;6275002;22;20094;-92
2023/09/02 04:30:40;;;;;;;3.22;1.65;;;;;;;;;;6274939;22;20520;-91
2023/09/02 04:33:06;;;;;;;4.03;1.73;;;;;;;;;;6274533;22;20015;-92
2023/09/02 04:35:36;;;;;;;3.28;1.75;;;;;;;;;;6274638;22;20004;-91
2023/09/02 04:38:02;;;;;;;11.65;2.08;;;;;;;;;;6274028;22;20015;-91
2023/09/02 04:40:28;;;;;;;3.20;1.67;;;;;;;;;;6276350;22;20007;-92
2023/09/02 04:42:56;;;;;;;3.38;1.42;;;;;;;;;;6274323;22;20029;-91
2023/09/02 04:45:22;;;;;;;4.07;2.05;;;;;;;;;;6274834;22;20004;-91
2023/09/02 04:47:48;;;;;;;3.72;1.63;;;;;;;;;;6274604;22;20050;-91
2023/09/02 04:50:14;;;;;;;2.25;1.75;;;;;;;;;;6274254;22;20007;-92
2023/09/02 04:52:40;;;;;;;3.55;1.63;;;;;;;;;;6274204;22;20003;-91
2023/09/02 04:55:06;;;;;;;5.50;1.60;;;;;;;;;;6274237;22;20022;-91
2023/09/02 04:57:34;;;;;;;2.65;1.80;;;;;;;;;;6275635;22;20007;-91
2023/09/02 05:00:00;;;;;;;2.55;1.45;;;;;;;;;;6274441;22;20071;-92
2023/09/02 05:02:26;;;;;;;1.70;1.60;;;;;;;;;;6274634;22;20437;-91
2023/09/02 05:04:52;;;;;;;2.45;1.60;;;;;;;;;;6275698;22;20078;-92
2023/09/02 05:07:18;;;;;;;3.78;1.67;;;;;;;;;;6274075;22;20437;-91
2023/09/02 05:09:44;;;;;;;2.38;1.30;;;;;;;;;;6274157;22;20003;-91
2023/09/02 05:12:10;;;;;;;3.53;1.52;;;;;;;;;;6275042;22;20000;-91
2023/09/02 05:14:38;;;;;;;1.67;1.38;;;;;;;;;;6274447;22;20007;-91
2023/09/02 05:17:04;;;;;;;3.47;1.52;;;;;;;;;;6274146;22;20091;-92
2023/09/02 05:19:30;;;;;;;3.17;1.83;;;;;;;;;;6274727;22;20429;-91
2023/09/02 05:21:57;;;;;;;2.15;1.70;;;;;;;;;;6274250;22;20004;-91
2023/09/02 05:24:23;;;;;;;4.15;1.63;;;;;;;;;;6275478;22;20000;-92
2023/09/02 05:26:49;;;;;;;5.05;1.83;;;;;;;;;;6274115;22;20098;-91
2023/09/02 05:29:15;;;;;;;2.85;2.00;;;;;;;;;;6273389;22;20043;-90
2023/09/02 05:31:41;;;;;;;4.45;1.60;;;;;;;;;;6273447;22;20041;-91
2023/09/02 05:34:07;;;;;;;2.90;1.70;;;;;;;;;;6274515;22;20000;-92
2023/09/02 05:36:33;;;;;;;2.30;1.65;;;;;;;;;;6273516;22;20014;-92
2023/09/02 05:38:59;;;;;;;5.50;1.83;;;;;;;;;;6273736;22;20436;-91
2023/09/02 05:41:25;;;;;;;6.30;2.30;;;;;;;;;;6273267;22;20003;-91
2023/09/02 05:43:51;;;;;;;3.53;2.05;;;;;;;;;;6273823;22;20014;-92
2023/09/02 05:46:17;;;;;;;3.08;1.98;;;;;;;;;;6275148;22;20011;-92
2023/09/02 05:48:43;;;;;;;11.10;2.17;;;;;;;;;;6272612;22;20270;-91
2023/09/02 05:51:09;;;;;;;3.17;2.30;;;;;;;;;;6271353;22;20043;-91
2023/09/02 05:53:35;;;;;;;2.42;1.75;;;;;;;;;;6273107;22;20009;-90
2023/09/02 05:56:01;;;;;;;5.20;1.88;;;;;;;;;;6272728;22;20008;-91
2023/09/02 05:58:27;;;;;;;5.72;1.90;;;;;;;;;;6272843;22;20471;-91
2023/09/02 06:00:53;;;;;;;3.05;1.73;;;;;;;;;;6272613;22;20460;-91
2023/09/02 06:03:20;;;;;;;6.50;2.25;;;;;;;;;;6274113;22;20022;-91
2023/09/02 06:05:46;;;;;;;2.25;1.67;;;;;;;;;;6273495;22;20086;-90
2023/09/02 06:08:12;;;;;;;7.43;2.17;;;;;;;;;;6272291;22;20035;-90
2023/09/02 06:10:37;;;;;;;3.50;1.70;;;;;;;;;;6271452;22;20311;-90
2023/09/02 06:13:04;;;;;;;8.65;1.90;;;;;;;;;;6273869;22;20094;-91
2023/09/02 06:15:30;;;;;;;7.47;2.03;;;;;;;;;;6276656;22;19999;-91
2023/09/02 06:17:55;;;;;;;6.07;2.33;;;;;;;;;;6274981;22;20016;-91
2023/09/02 06:20:25;;;;;;;3.95;2.22;;;;;;;;;;6274564;22;20004;-91
2023/09/02 06:22:51;;;;;;;2.45;1.67;;;;;;;;;;6274141;22;20441;-91
2023/09/02 06:25:17;;;;;;;7.53;2.03;;;;;;;;;;6272010;22;20799;-91
2023/09/02 06:27:43;;;;;;;6.40;2.20;;;;;;;;;;6273876;22;20053;-91
2023/09/02 06:30:09;;;;;;;2.80;2.00;;;;;;;;;;6272180;22;20384;-90
2023/09/02 06:32:35;;;;;;;4.18;1.80;;;;;;;;;;6271720;22;20031;-91
2023/09/02 06:35:02;;;;;;;1.45;1.20;;;;;;;;;;6272672;22;20428;-90
2023/09/02 06:37:29;;;;;;;2.08;1.60;;;;;;;;;;6271962;22;20026;-91
2023/09/02 06:39:55;;;;;;;3.67;1.58;;;;;;;;;;6275127;22;20006;-88
2023/09/02 06:42:21;;;;;;;6.80;1.90;;;;;;;;;;6274754;22;20018;-92
2023/09/02 06:44:47;;;;;;;1.55;1.45;;;;;;;;;;6273440;22;20345;-91
2023/09/02 06:47:16;;;;;;;6.78;1.77;;;;;;;;;;6271552;22;20436;-90
2023/09/02 06:49:42;;;;;;;5.35;2.20;;;;;;;;;;6271880;22;20035;-92
2023/09/02 06:52:08;;;;;;;3.20;1.80;;;;;;;;;;6215439;23;20015;-90
2023/09/02 06:54:34;;;;;;;2.45;1.45;;;;;;;;;;6243860;23;20053;-91
2023/09/02 06:57:00;;;;;;;3.10;1.52;;;;;;;;;;6215527;23;20012;-91
2023/09/02 06:59:26;;;;;;;5.05;1.77;;;;;;;;;;6216265;23;20452;-91
2023/09/02 07:01:52;;;;;;;2.15;1.23;;;;;;;;;;6211678;23;20019;-80
2023/09/02 07:04:21;;;;;;;3.17;1.67;;;;;;;;;;6241670;23;20100;-83
2023/09/02 07:06:47;;;;;;;5.65;1.70;;;;;;;;;;6245587;23;20417;-93
2023/09/02 07:09:13;;;;;;;2.05;1.40;;;;;;;;;;6193983;23;20047;-93
2023/09/02 07:11:39;;;;;;;5.50;1.25;;;;;;;;;;6218505;23;20008;-93
2023/09/02 07:14:05;;;;;;;4.07;1.65;;;;;;;;;;6218823;23;20004;-92
2023/09/02 07:16:31;;;;;;;4.65;1.35;;;;;;;;;;6218961;23;20004;-92
2023/09/02 07:18:58;;;;;;;6.50;1.85;;;;;;;;;;6218856;23;20006;-93
2023/09/02 07:21:25;;;;;;;5.47;1.70;;;;;;;;;;6219243;23;20491;-90
2023/09/02 07:23:52;;;;;;;2.60;1.60;;;;;;;;;;6218933;23;20058;-92
2023/09/02 07:26:18;;;;;;;9.00;1.73;;;;;;;;;;6246040;23;20460;-91
2023/09/02 07:28:44;;;;;;;10.48;1.95;;;;;;;;;;6245749;23;19996;-91
2023/09/02 07:31:10;;;;;;;5.22;1.88;;;;;;;;;;6218551;23;20115;-91
2023/09/02 07:33:36;;;;;;;5.65;1.80;;;;;;;;;;6219026;23;20000;-92
2023/09/02 07:36:09;;;;;;;4.95;1.80;;;;;;;;;;6218753;23;20011;-91
2023/09/02 07:38:35;;;;;;;4.90;2.60;;;;;;;;;;6218730;23;20032;-93
2023/09/02 07:41:01;;;;;;;4.22;2.00;;;;;;;;;;6218521;23;20004;-90
2023/09/02 07:43:27;;;;;;;3.88;2.08;;;;;;;;;;6245366;23;20032;-90
2023/09/02 07:45:54;;;;;;;14.75;2.90;;;;;;;;;;6245780;23;20000;-94
2023/09/02 07:48:20;;;;;;;7.70;2.92;;;;;;;;;;6245563;23;20004;-92
2023/09/02 07:50:46;;;;;;;4.75;2.30;;;;;;;;;;6258956;22;20435;-91
2023/09/02 07:53:13;;;;;;;7.47;3.25;;;;;;;;;;6276394;22;20003;-91
2023/09/02 07:55:39;;;;;;;7.25;2.72;;;;;;;;;;6274773;22;20011;-91
2023/09/02 07:58:05;;;;;;;3.50;2.42;;;;;;;;;;6277972;22;20183;-92
2023/09/02 08:00:35;;;;;;;5.72;1.60;;;;;;;;;;6274701;22;20003;-90
2023/09/02 08:03:01;;;;;;;2.72;2.00;;;;;;;;;;6274663;22;20008;-92
2023/09/02 08:05:27;;;;;;;5.25;2.00;;;;;;;;;;6274993;22;20015;-91
2023/09/02 08:07:54;;;;;;;6.97;2.45;;;;;;;;;;6274624;22;20026;-92
2023/09/02 08:10:20;;;;;;;6.13;2.08;;;;;;;;;;6275905;22;20443;-92
2023/09/02 08:12:46;;;;;;;4.35;1.88;;;;;;;;;;6274835;22;19999;-92
2023/09/02 08:15:12;;;;;;;3.50;2.20;;;;;;;;;;6274591;22;20012;-90
2023/09/02 08:17:39;;;;;;;4.65;2.03;;;;;;;;;;6274550;22;20043;-90
2023/09/02 08:20:06;;;;;;;7.50;2.72;;;;;;;;;;6274294;22;20000;-90
2023/09/02 08:22:32;;;;;;;3.53;2.17;;;;;;;;;;6274787;22;20500;-95
2023/09/02 08:24:58;;;;;;;3.83;2.20;;;;;;;;;;6276317;22;20239;-95
2023/09/02 08:27:27;;;;;;;5.03;1.92;;;;;;;;;;6274788;22;20004;-94
2023/09/02 08:29:53;;;;;;;4.53;2.00;;;;;;;;;;6274316;22;20038;-92
2023/09/02 08:32:19;;;;;;;7.53;2.13;;;;;;;;;;6273859;22;20243;-93
2023/09/02 08:34:45;;;;;;;5.97;2.33;;;;;;;;;;6274807;22;20389;-89
2023/09/02 08:37:11;;;;;;;5.38;2.17;;;;;;;;;;6274602;22;20011;-91
2023/09/02 08:39:37;;;;;;;3.75;2.10;;;;;;;;;;6276602;22;20337;-95
2023/09/02 08:42:04;;;;;;;7.20;2.35;;;;;;;;;;6274837;22;20101;-78
2023/09/02 08:44:33;;;;;;;3.83;1.92;;;;;;;;;;6271864;22;19999;-78
2023/09/02 08:47:05;;;;;;;2.67;1.85;;;;;;;;;;6272830;22;20443;-79
2023/09/02 08:49:31;;;;;;;4.85;1.92;;;;;;;;;;6272882;22;20382;-79
2023/09/02 08:51:57;;;;;;;7.40;1.80;;;;;;;;;;6272507;22;20015;-78
2023/09/02 08:54:23;;;;;;;3.63;2.13;;;;;;;;;;6272392;22;20080;-79
2023/09/02 08:56:49;;;;;;;2.97;1.90;;;;;;;;;;6272628;22;20135;-78
2023/09/02 08:59:16;;;;;;;6.15;2.17;;;;;;;;;;6272772;22;20045;-79
2023/09/02 09:01:45;;;;;;;3.17;2.25;;;;;;;;;;6272269;22;19999;-78
2023/09/02 09:04:13;;;;;;;5.43;2.63;;;;;;;;;;6272064;22;20396;-79
2023/09/02 09:06:40;;;;;;;3.35;2.38;;;;;;;;;;6271874;22;20007;-79
2023/09/02 09:09:08;;;;;;;3.88;1.88;;;;;;;;;;6272031;22;20002;-79
2023/09/02 09:11:36;;;;;;;3.88;2.78;;;;;;;;;;6272955;22;20042;-79
2023/09/02 09:14:03;;;;;;;3.97;2.20;;;;;;;;;;6271031;22;20008;-79
2023/09/02 09:16:33;;;;;;;9.40;3.78;;;;;;;;;;6265717;22;20079;-79
2023/09/02 09:18:59;;;;;;;;;;;;;;;;;;6271775;22;20007;-79
2023/09/02 09:21:24;;;;;;;3.58;1.60;;;;;;;;;;6270901;22;19899;-79
2023/09/02 09:23:50;;;;;;;5.95;2.03;;;;;;;;;;6269388;22;20007;-78
2023/09/02 09:26:18;;;;;;;4.10;1.85;;;;;;;;;;6267367;22;20673;-79
2023/09/02 09:28:51;;;;;;;4.85;2.25;;;;;;;;;;6271333;22;20057;-79
2023/09/02 09:31:17;;;;;;;4.15;2.10;;;;;;;;;;6263273;22;20000;-79
2023/09/02 09:34:00;;;;;;;4.43;2.25;;;;;;;;;;6270316;22;20008;-79
2023/09/02 09:36:29;;;;;;;4.78;1.92;;;;;;;;;;6265016;22;20022;-79
2023/09/02 09:38:55;;;;;;;4.32;1.58;;;;;;;;;;6272606;22;20082;-79
2023/09/02 09:41:23;;;;;;;4.43;1.60;;;;;;;;;;6272052;22;20032;-79
2023/09/02 09:44:05;;;;;;;4.18;2.55;;;;;;;;;;6269631;22;20034;-78
2023/09/02 09:46:35;;;;;;;2.92;1.65;;;;;;;;;;6268231;22;20091;-79
2023/09/02 09:49:01;;;;;;;3.00;1.45;;;;;;;;;;6264051;22;20144;-79
2023/09/02 09:51:27;;;;;;;2.67;1.85;;;;;;;;;;6267143;22;20154;-80
2023/09/02 09:53:53;;;;;;;2.63;1.63;;;;;;;;;;6269471;22;20004;-80
2023/09/02 09:56:20;;;;;;;3.33;1.60;;;;;;;;;;6267769;22;20037;-79
2023/09/02 09:58:46;;;;;;;2.88;1.40;;;;;;;;;;6267897;22;19999;-83
2023/09/02 10:01:20;;;;;;;3.50;1.80;;;;;;;;;;6269223;22;20004;-80
2023/09/02 10:03:46;;;;;;;4.38;1.63;;;;;;;;;;6266924;22;20321;-80
2023/09/02 10:06:12;;;;;;;4.07;1.88;;;;;;;;;;6267810;22;20014;-82
2023/09/02 10:08:51;;;;;;;3.70;1.50;;;;;;;;;;6268118;22;20330;-83
2023/09/02 10:11:24;;;;;;;6.97;1.40;;;;;;;;;;6269181;22;20437;-85
2023/09/02 10:13:53;;;;;;;2.08;1.40;;;;;;;;;;6270661;22;20538;-81
2023/09/02 10:16:21;;;;;;;2.97;1.38;;;;;;;;;;6269981;22;20011;-83
2023/09/02 10:18:48;;;;;;;4.43;1.42;;;;;;;;;;6273446;22;20000;-80
2023/09/02 10:21:15;;;;;;;2.70;1.38;;;;;;;;;;6273543;22;20011;-82
2023/09/02 10:23:48;;;;;;;2.63;1.52;;;;;;;;;;6273466;22;20779;-83
2023/09/02 10:26:33;;;;;;;2.38;1.45;;;;;;;;;;6271745;22;20000;-84
2023/09/02 10:29:00;;;;;;;1.48;1.30;;;;;;;;;;6271567;22;20376;-82
2023/09/02 10:31:32;;;;;;;3.17;1.75;;;;;;;;;;6271941;22;20004;-82
2023/09/02 10:34:21;;;;;;;5.45;1.80;;;;;;;;;;6272159;22;20025;-80
2023/09/02 10:37:09;;;;;;;2.28;1.17;;;;;;;;;;6269345;22;20026;-80
2023/09/02 10:39:41;;;;;;;4.10;1.80;;;;;;;;;;6271394;22;20007;-80
2023/09/02 10:42:07;;;;;;;3.58;1.88;;;;;;;;;;6273349;22;20417;-78
2023/09/02 10:44:33;;;;;;;1.95;1.50;;;;;;;;;;6273689;22;20010;-79
2023/09/02 10:46:59;;;;;;;3.83;1.55;;;;;;;;;;6274038;22;20086;-80
2023/09/02 10:49:26;;;;;;;3.38;1.20;;;;;;;;;;6272350;22;21088;-78
2023/09/02 10:51:52;;;;;;;4.00;1.33;;;;;;;;;;6273639;22;20082;-81
2023/09/02 10:54:18;;;;;;;3.42;1.40;;;;;;;;;;6274126;22;20023;-89
2023/09/02 10:56:44;;;;;;;6.57;1.38;;;;;;;;;;6272070;22;20424;-83
2023/09/02 10:59:10;;;;;;;3.05;1.45;;;;;;;;;;6273819;22;20004;-84
2023/09/02 11:01:46;;;;;;;3.60;1.50;;;;;;;;;;6273491;22;20007;-84
2023/09/02 11:04:12;;;;;;;2.88;1.50;;;;;;;;;;6273857;22;20004;-84
2023/09/02 11:06:38;;;;;;;10.43;1.90;;;;;;;;;;6273769;22;20061;-84
2023/09/02 11:09:04;;;;;;;3.55;1.65;;;;;;;;;;6274179;22;20433;-82
2023/09/02 11:11:53;;;;;;;5.03;2.10;;;;;;;;;;6273370;22;20004;-85
2023/09/02 11:14:19;;;;;;;2.65;1.65;;;;;;;;;;6259244;22;20763;-85
2023/09/02 11:16:46;;;;;;;3.13;1.25;;;;;;;;;;6273791;22;20030;-84
2023/09/02 11:19:12;;;;;;;6.30;1.67;;;;;;;;;;6270850;22;20079;-85
2023/09/02 11:21:41;;;;;;;1.33;1.15;;;;;;;;;;6269098;22;20007;-85
2023/09/02 11:24:17;;;;;;;3.67;1.48;;;;;;;;;;6269188;22;20006;-85
2023/09/02 11:26:59;;;;;;;3.53;1.20;;;;;;;;;;6268300;22;19999;-85
2023/09/02 11:29:26;;;;;;;1.50;1.15;;;;;;;;;;6269094;22;20467;-84
2023/09/02 11:31:57;;;;;;;3.17;1.55;;;;;;;;;;6269095;22;20063;-87
2023/09/02 11:34:27;;;;;;;2.17;1.10;;;;;;;;;;6266831;22;20050;-84
2023/09/02 11:36:54;;;;;;;4.15;1.40;;;;;;;;;;6268754;22;20003;-85
2023/09/02 11:39:24;;;;;;;3.95;1.30;;;;;;;;;;6271066;22;20333;-85
2023/09/02 11:42:04;;;;;;;2.95;2.33;;;;;;;;;;6269932;22;20058;-85
2023/09/02 11:44:30;;;;;;;7.85;1.65;;;;;;;;;;6266320;22;20030;-86
2023/09/02 11:46:56;;;;;;;3.33;1.63;;;;;;;;;;6272831;22;20003;-84
2023/09/02 11:49:25;;;;;;;2.88;1.20;;;;;;;;;;6271110;22;20079;-83
2023/09/02 11:51:51;;;;;;;2.80;1.40;;;;;;;;;;6267021;22;20015;-84
2023/09/02 11:54:17;;;;;;;2.05;1.38;;;;;;;;;;6271639;22;20409;-83
2023/09/02 11:57:07;;;;;;;2.20;1.45;;;;;;;;;;6271230;22;20038;-84
2023/09/02 11:59:36;;;;;;;3.38;1.70;;;;;;;;;;6269993;22;20090;-85
2023/09/02 12:02:09;;;;;;;1.73;1.40;;;;;;;;;;6268358;22;20004;-83
2023/09/02 12:04:38;;;;;;;5.28;1.70;;;;;;;;;;6269271;22;20038;-82
2023/09/02 12:07:05;;;;;;;1.90;1.15;;;;;;;;;;6268567;22;20008;-83
2023/09/02 12:09:31;;;;;;;3.05;1.55;;;;;;;;;;6269574;22;20425;-82
2023/09/02 12:11:57;;;;;;;5.85;1.63;;;;;;;;;;6269207;22;20000;-84
2023/09/02 12:14:27;;;;;;;3.35;1.58;;;;;;;;;;6269714;22;20004;-83
2023/09/02 12:16:53;;;;;;;5.88;1.50;;;;;;;;;;6269144;22;20050;-84
2023/09/02 12:19:19;;;;;;;1.85;1.30;;;;;;;;;;6270497;22;19999;-84
2023/09/02 12:21:46;;;;;;;4.00;1.40;;;;;;;;;;6271614;22;20004;-84
2023/09/02 12:24:12;;;;;;;3.22;1.40;;;;;;;;;;6273482;22;20474;-84
2023/09/02 12:26:47;;;;;;;2.60;1.63;;;;;;;;;;6273017;22;19999;-84
2023/09/02 12:29:17;;;;;;;5.38;1.70;;;;;;;;;;6272350;22;20004;-85
2023/09/02 12:31:50;;;;;;;3.43;1.50;;;;;;;;;;6271938;22;20337;-83
2023/09/02 12:34:16;;;;;;;3.20;1.50;;;;;;;;;;6272968;22;20007;-82
2023/09/02 12:36:42;;;;;;;2.75;1.50;;;;;;;;;;6272392;22;20433;-83
2023/09/02 12:39:08;;;;;;;6.13;1.60;;;;;;;;;;6271470;22;20011;-85
2023/09/02 12:41:38;;;;;;;2.92;1.60;;;;;;;;;;6268654;22;20000;-86
2023/09/02 12:44:03;;;;;;;;;;;;;;;;;;6271101;22;20014;-89
2023/09/02 12:46:29;;;;;;;3.45;1.48;;;;;;;;;;6270395;22;19903;-84
2023/09/02 12:48:56;;;;;;;4.93;1.80;;;;;;;;;;6273038;22;20069;-87
2023/09/02 12:51:27;;;;;;;2.80;1.50;;;;;;;;;;6273700;22;20008;-87
2023/09/02 12:53:54;;;;;;;3.00;1.65;;;;;;;;;;6274477;22;20062;-86
2023/09/02 12:56:20;;;;;;;4.38;1.88;;;;;;;;;;6273169;22;20004;-86
2023/09/02 12:58:46;;;;;;;2.58;1.58;;;;;;;;;;6273713;22;20022;-83
2023/09/02 13:01:13;;;;;;;3.35;1.67;;;;;;;;;;6273468;22;20000;-87
2023/09/02 13:03:39;;;;;;;7.43;1.83;;;;;;;;;;6273351;22;20004;-84
2023/09/02 13:06:04;;;;;;;4.78;1.85;;;;;;;;;;6274099;22;20370;-84
2023/09/02 13:08:30;;;;;;;1.92;1.58;;;;;;;;;;6273553;22;20004;-82
2023/09/02 13:10:56;;;;;;;3.58;1.85;;;;;;;;;;6271328;22;20061;-86
2023/09/02 13:13:22;;;;;;;3.15;1.60;;;;;;;;;;6273829;22;20004;-86
2023/09/02 13:15:48;;;;;;;8.20;1.90;;;;;;;;;;6273801;22;19996;-91
2023/09/02 13:18:14;;;;;;;5.03;1.70;;;;;;;;;;6273738;22;20098;-89
2023/09/02 13:20:40;;;;;;;2.20;1.55;;;;;;;;;;6273713;22;20459;-86
2023/09/02 13:23:06;;;;;;;4.47;2.28;;;;;;;;;;6273568;22;19999;-84
2023/09/02 13:25:32;;;;;;;9.43;1.40;;;;;;;;;;6273208;22;20000;-81
2023/09/02 13:28:00;;;;;;;3.67;1.55;;;;;;;;;;6273280;22;19996;-84
2023/09/02 13:30:26;;;;;;;2.10;1.65;;;;;;;;;;6272694;22;20010;-85
2023/09/02 13:32:52;;;;;;;4.45;1.65;;;;;;;;;;6272992;22;20019;-84
2023/09/02 13:35:21;;;;;;;2.00;1.23;;;;;;;;;;6273358;22;20644;-84
2023/09/02 13:37:48;;;;;;;2.55;1.38;;;;;;;;;;6272573;22;20003;-84
2023/09/02 13:40:20;;;;;;;6.28;1.73;;;;;;;;;;6275006;22;19995;-87
2023/09/02 13:42:47;;;;;;;4.38;1.60;;;;;;;;;;6274493;22;20360;-90
2023/09/02 13:45:29;;;;;;;4.18;1.65;;;;;;;;;;6272476;22;20440;-87
2023/09/02 13:47:55;;;;;;;2.42;1.50;;;;;;;;;;6271744;22;20003;-82
2023/09/02 13:50:21;;;;;;;3.22;1.70;;;;;;;;;;6271673;22;20012;-83
2023/09/02 13:52:50;;;;;;;6.05;2.03;;;;;;;;;;6269938;22;20069;-82
2023/09/02 13:55:18;;;;;;;1.70;1.40;;;;;;;;;;6268246;22;20000;-84
2023/09/02 13:57:44;;;;;;;3.72;1.58;;;;;;;;;;6266886;22;20047;-86
2023/09/02 14:00:21;;;;;;;3.53;1.50;;;;;;;;;;6266534;22;20015;-84
2023/09/02 14:02:47;;;;;;;3.00;1.73;;;;;;;;;;6266708;22;20016;-85
2023/09/02 14:05:19;;;;;;;6.10;1.42;;;;;;;;;;6269029;22;20004;-84
2023/09/02 14:07:45;;;;;;;3.53;1.63;;;;;;;;;;6274693;22;20003;-86
2023/09/02 14:10:11;;;;;;;2.55;1.30;;;;;;;;;;6274280;22;20004;-83
2023/09/02 14:12:39;;;;;;;2.75;1.60;;;;;;;;;;6272752;22;20030;-84
2023/09/02 14:15:05;;;;;;;2.10;1.48;;;;;;;;;;6273402;22;20494;-83
2023/09/02 14:17:31;;;;;;;3.83;1.95;;;;;;;;;;6273807;22;20062;-89
2023/09/02 14:19:57;;;;;;;4.13;1.80;;;;;;;;;;6274135;22;20414;-86
2023/09/02 14:22:23;;;;;;;7.05;2.70;;;;;;;;;;6272828;22;20086;-83
2023/09/02 14:24:49;;;;;;;5.60;2.35;;;;;;;;;;6274732;22;20449;-83
2023/09/02 14:27:17;;;;;;;2.80;1.67;;;;;;;;;;6275088;22;20004;-88
2023/09/02 14:29:43;;;;;;;2.45;1.70;;;;;;;;;;6274820;22;20539;-85
2023/09/02 14:32:09;;;;;;;2.35;1.48;;;;;;;;;;6274081;22;20014;-83
2023/09/02 14:34:35;;;;;;;2.28;1.50;;;;;;;;;;6274752;22;20403;-84
2023/09/02 14:37:02;;;;;;;3.95;1.83;;;;;;;;;;6273192;22;20023;-83
2023/09/02 14:39:30;;;;;;;2.28;1.45;;;;;;;;;;6274101;22;19999;-83
2023/09/02 14:41:56;;;;;;;2.80;1.60;;;;;;;;;;6272655;22;20003;-82
2023/09/02 14:44:23;;;;;;;2.88;1.70;;;;;;;;;;6274123;22;20089;-83
2023/09/02 14:46:49;;;;;;;3.53;1.73;;;;;;;;;;6274308;22;20035;-83
2023/09/02 14:49:16;;;;;;;4.32;1.60;;;;;;;;;;6274925;22;20007;-83
2023/09/02 14:51:42;;;;;;;2.50;1.75;;;;;;;;;;6274042;22;20019;-84
2023/09/02 14:54:10;;;;;;;5.22;1.40;;;;;;;;;;6274331;22;20011;-90
2023/09/02 14:56:41;;;;;;;2.42;1.60;;;;;;;;;;6274491;22;20012;-84
2023/09/02 14:59:11;;;;;;;3.30;1.67;;;;;;;;;;6270853;22;20004;-83